createdAt,value
2018-01-23T00:00:42.216Z,973.57
2018-01-23T00:01:42.240Z,973.55
2018-01-23T00:02:42.284Z,973.51
2018-01-23T00:03:42.335Z,973.61
2018-01-23T00:04:42.372Z,973.59
2018-01-23T00:05:42.433Z,973.63
2018-01-23T00:06:42.480Z,973.66
2018-01-23T00:07:42.507Z,973.65
2018-01-23T00:08:42.550Z,973.66
2018-01-23T00:09:42.599Z,973.66
2018-01-23T00:10:42.639Z,973.72
2018-01-23T00:11:42.700Z,973.72
2018-01-23T00:12:42.728Z,973.76
2018-01-23T00:13:42.773Z,973.67
2018-01-23T00:14:42.820Z,973.59
2018-01-23T00:15:42.867Z,973.58
2018-01-23T00:16:42.919Z,973.53
2018-01-23T00:17:42.954Z,973.48
2018-01-23T00:18:43.001Z,973.48
2018-01-23T00:19:43.039Z,973.51
2018-01-23T00:20:43.081Z,973.54
2018-01-23T00:21:43.150Z,973.60
2018-01-23T00:22:43.170Z,973.64
2018-01-23T00:23:43.217Z,973.59
2018-01-23T00:24:43.260Z,973.60
2018-01-23T00:25:43.304Z,973.58
2018-01-23T00:26:43.368Z,973.57
2018-01-23T00:27:43.395Z,973.59
2018-01-23T00:28:43.451Z,973.58
2018-01-23T00:29:43.487Z,973.59
2018-01-23T00:30:43.524Z,973.54
2018-01-23T00:31:43.593Z,973.54
2018-01-23T00:32:43.612Z,973.54
2018-01-23T00:33:43.694Z,973.53
2018-01-23T00:34:43.704Z,973.50
2018-01-23T00:35:43.759Z,973.54
2018-01-23T00:36:43.790Z,973.57
2018-01-23T00:37:43.834Z,973.65
2018-01-23T00:38:43.893Z,973.77
2018-01-23T00:39:43.927Z,973.85
2018-01-23T00:40:43.981Z,973.93
2018-01-23T00:41:44.045Z,973.99
2018-01-23T00:42:44.056Z,974.08
2018-01-23T00:43:44.100Z,974.12
2018-01-23T00:44:44.145Z,974.18
2018-01-23T00:45:44.191Z,974.17
2018-01-23T00:46:44.252Z,974.12
2018-01-23T00:47:44.282Z,974.13
2018-01-23T00:48:44.329Z,974.14
2018-01-23T00:49:44.368Z,974.18
2018-01-23T00:50:44.444Z,974.14
2018-01-23T00:51:44.460Z,974.16
2018-01-23T00:52:44.499Z,974.13
2018-01-23T00:53:44.544Z,974.12
2018-01-23T00:54:44.588Z,974.13
2018-01-23T00:55:44.653Z,974.07
2018-01-23T00:56:44.680Z,974.13
2018-01-23T00:57:44.741Z,974.13
2018-01-23T00:58:44.767Z,974.15
2018-01-23T00:59:44.812Z,974.22
2018-01-23T01:00:44.856Z,974.22
2018-01-23T01:01:44.902Z,974.29
2018-01-23T01:02:44.963Z,974.20
2018-01-23T01:03:44.990Z,974.20
2018-01-23T01:04:45.033Z,974.13
2018-01-23T01:05:45.084Z,974.11
2018-01-23T01:06:45.125Z,974.10
2018-01-23T01:07:45.188Z,974.10
2018-01-23T01:08:45.229Z,974.13
2018-01-23T01:09:45.260Z,974.12
2018-01-23T01:10:45.315Z,974.17
2018-01-23T01:11:45.346Z,974.22
2018-01-23T01:12:45.390Z,974.27
2018-01-23T01:13:45.457Z,974.30
2018-01-23T01:14:45.483Z,974.29
2018-01-23T01:15:45.526Z,974.34
2018-01-23T01:16:45.569Z,974.37
2018-01-23T01:17:45.631Z,974.39
2018-01-23T01:18:45.659Z,974.40
2018-01-23T01:19:45.707Z,974.42
2018-01-23T01:20:45.748Z,974.42
2018-01-23T01:21:45.797Z,974.45
2018-01-23T01:22:45.852Z,974.47
2018-01-23T01:23:45.883Z,974.47
2018-01-23T01:24:45.940Z,974.49
2018-01-23T01:25:45.966Z,974.51
2018-01-23T01:26:46.014Z,974.52
2018-01-23T01:27:46.077Z,974.55
2018-01-23T01:28:46.105Z,974.58
2018-01-23T01:29:46.149Z,974.58
2018-01-23T01:30:46.197Z,974.66
2018-01-23T01:31:46.240Z,974.65
2018-01-23T01:32:46.297Z,974.67
2018-01-23T01:33:46.327Z,974.69
2018-01-23T01:34:46.389Z,974.67
2018-01-23T01:35:46.416Z,974.70
2018-01-23T01:36:46.462Z,974.69
2018-01-23T01:37:46.507Z,974.71
2018-01-23T01:38:46.553Z,974.73
2018-01-23T01:39:46.608Z,974.69
2018-01-23T01:40:46.644Z,974.72
2018-01-23T01:41:46.681Z,974.75
2018-01-23T01:42:46.731Z,974.75
2018-01-23T01:43:46.781Z,974.72
2018-01-23T01:44:46.832Z,974.78
2018-01-23T01:45:46.870Z,974.75
2018-01-23T01:46:46.940Z,974.77
2018-01-23T01:47:46.958Z,974.82
2018-01-23T01:48:46.998Z,974.94
2018-01-23T01:49:47.039Z,974.95
2018-01-23T01:50:47.085Z,974.98
2018-01-23T01:51:47.161Z,974.98
2018-01-23T01:52:47.176Z,975.01
2018-01-23T01:53:47.220Z,975.07
2018-01-23T01:54:47.263Z,975.06
2018-01-23T01:55:47.310Z,975.10
2018-01-23T01:56:47.389Z,975.13
2018-01-23T01:57:47.399Z,975.12
2018-01-23T01:58:47.441Z,975.16
2018-01-23T01:59:47.493Z,975.21
2018-01-23T02:00:47.530Z,975.25
2018-01-23T02:01:47.601Z,975.19
2018-01-23T02:02:47.620Z,975.15
2018-01-23T02:03:47.666Z,975.15
2018-01-23T02:04:47.723Z,975.16
2018-01-23T02:05:47.753Z,975.14
2018-01-23T02:06:47.818Z,975.18
2018-01-23T02:07:47.845Z,975.23
2018-01-23T02:08:47.890Z,975.18
2018-01-23T02:09:47.931Z,975.28
2018-01-23T02:10:47.976Z,975.27
2018-01-23T02:11:48.037Z,975.25
2018-01-23T02:12:48.082Z,975.23
2018-01-23T02:13:48.109Z,975.27
2018-01-23T02:14:48.153Z,975.33
2018-01-23T02:15:48.198Z,975.41
2018-01-23T02:16:48.242Z,975.46
2018-01-23T02:17:48.304Z,975.45
2018-01-23T02:18:48.333Z,975.45
2018-01-23T02:19:48.379Z,975.44
2018-01-23T02:20:48.424Z,975.47
2018-01-23T02:21:48.469Z,975.54
2018-01-23T02:22:48.527Z,975.56
2018-01-23T02:23:48.553Z,975.62
2018-01-23T02:24:48.615Z,975.68
2018-01-23T02:25:48.641Z,975.77
2018-01-23T02:26:48.686Z,975.83
2018-01-23T02:27:48.749Z,975.86
2018-01-23T02:28:48.776Z,975.93
2018-01-23T02:29:48.835Z,975.97
2018-01-23T02:30:48.876Z,975.97
2018-01-23T02:31:48.908Z,976.01
2018-01-23T02:32:48.952Z,976.01
2018-01-23T02:33:48.996Z,976.02
2018-01-23T02:34:49.058Z,976.05
2018-01-23T02:35:49.087Z,976.01
2018-01-23T02:36:49.132Z,976.04
2018-01-23T02:37:49.174Z,976.03
2018-01-23T02:38:49.218Z,976.08
2018-01-23T02:39:49.280Z,976.11
2018-01-23T02:40:49.308Z,976.07
2018-01-23T02:41:49.350Z,976.04
2018-01-23T02:42:49.395Z,976.04
2018-01-23T02:43:49.440Z,976.05
2018-01-23T02:44:49.507Z,976.09
2018-01-23T02:45:49.532Z,976.10
2018-01-23T02:46:49.573Z,976.11
2018-01-23T02:47:49.616Z,976.11
2018-01-23T02:48:49.658Z,976.14
2018-01-23T02:49:49.721Z,976.08
2018-01-23T02:50:49.747Z,976.06
2018-01-23T02:51:49.803Z,976.08
2018-01-23T02:52:49.839Z,976.09
2018-01-23T02:53:49.880Z,976.13
2018-01-23T02:54:49.941Z,976.15
2018-01-23T02:55:49.970Z,976.17
2018-01-23T02:56:50.027Z,976.11
2018-01-23T02:57:50.056Z,976.06
2018-01-23T02:58:50.101Z,976.10
2018-01-23T02:59:50.146Z,976.11
2018-01-23T03:00:50.187Z,976.13
2018-01-23T03:01:50.250Z,976.16
2018-01-23T03:02:50.279Z,976.16
2018-01-23T03:03:50.326Z,976.21
2018-01-23T03:04:50.368Z,976.23
2018-01-23T03:05:50.412Z,976.25
2018-01-23T03:06:50.492Z,976.28
2018-01-23T03:07:50.500Z,976.34
2018-01-23T03:08:50.547Z,976.41
2018-01-23T03:09:50.588Z,976.42
2018-01-23T03:10:50.632Z,976.46
2018-01-23T03:11:50.691Z,976.55
2018-01-23T03:12:50.717Z,976.54
2018-01-23T03:13:50.762Z,976.57
2018-01-23T03:14:50.808Z,976.61
2018-01-23T03:15:50.851Z,976.64
2018-01-23T03:16:50.909Z,976.66
2018-01-23T03:17:50.981Z,976.66
2018-01-23T03:18:50.983Z,976.71
2018-01-23T03:19:51.027Z,976.71
2018-01-23T03:20:51.119Z,976.73
2018-01-23T03:21:51.116Z,976.79
2018-01-23T03:22:51.195Z,976.78
2018-01-23T03:23:51.206Z,976.78
2018-01-23T03:24:51.246Z,976.77
2018-01-23T03:25:51.298Z,976.80
2018-01-23T03:26:51.338Z,976.84
2018-01-23T03:27:51.416Z,976.85
2018-01-23T03:28:51.423Z,976.92
2018-01-23T03:29:51.471Z,976.86
2018-01-23T03:30:51.513Z,976.94
2018-01-23T03:31:51.568Z,976.97
2018-01-23T03:32:51.624Z,977.03
2018-01-23T03:33:51.661Z,977.03
2018-01-23T03:34:51.690Z,977.05
2018-01-23T03:35:51.734Z,977.08
2018-01-23T03:36:51.780Z,977.08
2018-01-23T03:37:51.821Z,977.09
2018-01-23T03:38:51.883Z,977.08
2018-01-23T03:39:51.930Z,977.13
2018-01-23T03:40:51.953Z,977.20
2018-01-23T03:41:52.001Z,977.20
2018-01-23T03:42:52.042Z,977.24
2018-01-23T03:43:52.088Z,977.27
2018-01-23T03:44:52.147Z,977.25
2018-01-23T03:45:52.175Z,977.23
2018-01-23T03:46:52.219Z,977.18
2018-01-23T03:47:52.266Z,977.17
2018-01-23T03:48:52.309Z,977.16
2018-01-23T03:49:52.377Z,977.13
2018-01-23T03:50:52.397Z,977.16
2018-01-23T03:51:52.437Z,977.14
2018-01-23T03:52:52.485Z,977.17
2018-01-23T03:53:52.529Z,977.19
2018-01-23T03:54:52.589Z,977.21
2018-01-23T03:55:52.618Z,977.23
2018-01-23T03:56:52.660Z,977.30
2018-01-23T03:57:52.705Z,977.32
2018-01-23T03:58:52.749Z,977.29
2018-01-23T03:59:52.850Z,977.33
2018-01-23T04:00:52.851Z,977.34
2018-01-23T04:01:53.515Z,977.33
2018-01-23T04:02:52.923Z,977.34
2018-01-23T04:03:52.973Z,977.40
2018-01-23T04:04:53.011Z,977.41
2018-01-23T04:05:53.070Z,977.40
2018-01-23T04:06:53.099Z,977.46
2018-01-23T04:07:53.143Z,977.45
2018-01-23T04:08:53.187Z,977.43
2018-01-23T04:09:53.230Z,977.44
2018-01-23T04:10:53.299Z,977.40
2018-01-23T04:11:53.321Z,977.47
2018-01-23T04:12:53.361Z,977.48
2018-01-23T04:13:53.406Z,977.55
2018-01-23T04:14:53.454Z,977.54
2018-01-23T04:15:53.512Z,977.59
2018-01-23T04:16:53.545Z,977.58
2018-01-23T04:17:53.580Z,977.62
2018-01-23T04:18:53.628Z,977.61
2018-01-23T04:19:53.672Z,977.60
2018-01-23T04:20:53.747Z,977.64
2018-01-23T04:21:53.757Z,977.65
2018-01-23T04:22:53.801Z,977.67
2018-01-23T04:23:53.845Z,977.66
2018-01-23T04:24:54.517Z,977.68
2018-01-23T04:25:53.963Z,977.70
2018-01-23T04:26:53.975Z,977.68
2018-01-23T04:27:54.024Z,977.71
2018-01-23T04:28:54.063Z,977.76
2018-01-23T04:29:54.713Z,977.75
2018-01-23T04:30:54.179Z,977.76
2018-01-23T04:31:54.194Z,977.77
2018-01-23T04:32:54.261Z,977.75
2018-01-23T04:33:54.283Z,977.74
2018-01-23T04:34:54.327Z,977.69
2018-01-23T04:35:54.370Z,977.74
2018-01-23T04:36:54.427Z,977.69
2018-01-23T04:37:54.457Z,977.68
2018-01-23T04:38:54.516Z,977.68
2018-01-23T04:39:54.549Z,977.61
2018-01-23T04:40:54.588Z,977.59
2018-01-23T04:41:54.686Z,977.61
2018-01-23T04:42:54.676Z,977.65
2018-01-23T04:43:54.737Z,977.67
2018-01-23T04:44:54.777Z,977.73
2018-01-23T04:45:54.808Z,977.74
2018-01-23T04:46:54.852Z,977.75
2018-01-23T04:47:54.894Z,977.72
2018-01-23T04:48:54.954Z,977.74
2018-01-23T04:49:54.982Z,977.79
2018-01-23T04:50:55.027Z,977.83
2018-01-23T04:51:55.070Z,977.82
2018-01-23T04:52:55.107Z,977.83
2018-01-23T04:53:55.172Z,977.86
2018-01-23T04:54:55.214Z,977.84
2018-01-23T04:55:55.242Z,977.81
2018-01-23T04:56:55.287Z,977.81
2018-01-23T04:57:55.336Z,977.86
2018-01-23T04:58:55.373Z,977.90
2018-01-23T04:59:55.450Z,977.90
2018-01-23T05:00:55.468Z,977.96
2018-01-23T05:01:55.509Z,977.96
2018-01-23T05:02:55.548Z,978.02
2018-01-23T05:03:55.590Z,978.05
2018-01-23T05:04:55.670Z,978.08
2018-01-23T05:05:55.681Z,978.10
2018-01-23T05:06:55.726Z,978.16
2018-01-23T05:07:55.775Z,978.12
2018-01-23T05:08:55.809Z,978.11
2018-01-23T05:09:55.869Z,978.22
2018-01-23T05:10:55.935Z,978.21
2018-01-23T05:11:55.943Z,978.30
2018-01-23T05:12:55.984Z,978.37
2018-01-23T05:13:56.027Z,978.33
2018-01-23T05:14:56.073Z,978.35
2018-01-23T05:15:56.713Z,978.31
2018-01-23T05:16:56.158Z,978.27
2018-01-23T05:17:56.200Z,978.32
2018-01-23T05:18:56.245Z,978.26
2018-01-23T05:19:56.291Z,978.20
2018-01-23T05:20:56.348Z,978.21
2018-01-23T05:21:56.379Z,978.16
2018-01-23T05:22:56.421Z,978.17
2018-01-23T05:23:56.462Z,978.16
2018-01-23T05:24:56.507Z,978.19
2018-01-23T05:25:56.566Z,978.22
2018-01-23T05:26:56.594Z,978.21
2018-01-23T05:27:56.636Z,978.23
2018-01-23T05:28:56.680Z,978.21
2018-01-23T05:29:56.723Z,978.20
2018-01-23T05:30:56.811Z,978.25
2018-01-23T05:31:56.819Z,978.24
2018-01-23T05:32:56.886Z,978.27
2018-01-23T05:33:56.902Z,978.26
2018-01-23T05:34:56.940Z,978.28
2018-01-23T05:35:56.988Z,978.27
2018-01-23T05:36:57.027Z,978.29
2018-01-23T05:37:57.104Z,978.28
2018-01-23T05:38:57.112Z,978.33
2018-01-23T05:39:57.156Z,978.32
2018-01-23T05:40:57.203Z,978.34
2018-01-23T05:41:57.244Z,978.36
2018-01-23T05:42:57.324Z,978.37
2018-01-23T05:43:57.330Z,978.39
2018-01-23T05:44:57.370Z,978.42
2018-01-23T05:45:57.416Z,978.41
2018-01-23T05:46:57.457Z,978.42
2018-01-23T05:47:57.536Z,978.43
2018-01-23T05:48:57.543Z,978.43
2018-01-23T05:49:57.588Z,978.44
2018-01-23T05:50:57.630Z,978.53
2018-01-23T05:51:57.678Z,978.55
2018-01-23T05:52:57.749Z,978.55
2018-01-23T05:53:57.759Z,978.59
2018-01-23T05:54:57.803Z,978.59
2018-01-23T05:55:57.849Z,978.65
2018-01-23T05:56:57.889Z,978.62
2018-01-23T05:57:57.978Z,978.61
2018-01-23T05:58:57.977Z,978.64
2018-01-23T05:59:58.018Z,978.65
2018-01-23T06:00:58.062Z,978.63
2018-01-23T06:01:58.105Z,978.66
2018-01-23T06:02:58.181Z,978.69
2018-01-23T06:03:58.191Z,978.69
2018-01-23T06:04:58.237Z,978.69
2018-01-23T06:05:58.277Z,978.65
2018-01-23T06:06:58.321Z,978.67
2018-01-23T06:07:58.397Z,978.68
2018-01-23T06:08:58.409Z,978.67
2018-01-23T06:09:58.454Z,978.67
2018-01-23T06:10:58.493Z,978.66
2018-01-23T06:11:58.537Z,978.68
2018-01-23T06:12:58.598Z,978.66
2018-01-23T06:13:58.624Z,978.69
2018-01-23T06:14:58.685Z,978.68
2018-01-23T06:15:58.708Z,978.64
2018-01-23T06:16:58.766Z,978.63
2018-01-23T06:17:58.798Z,978.64
2018-01-23T06:18:58.841Z,978.64
2018-01-23T06:19:58.899Z,978.67
2018-01-23T06:20:58.926Z,978.65
2018-01-23T06:21:58.972Z,978.65
2018-01-23T06:22:59.013Z,978.70
2018-01-23T06:23:59.076Z,978.72
2018-01-23T06:24:59.102Z,978.71
2018-01-23T06:25:59.161Z,978.75
2018-01-23T06:26:59.187Z,978.77
2018-01-23T06:27:59.229Z,978.79
2018-01-23T06:28:59.287Z,978.76
2018-01-23T06:29:59.313Z,978.80
2018-01-23T06:30:59.377Z,978.85
2018-01-23T06:31:59.402Z,978.85
2018-01-23T06:32:59.443Z,978.84
2018-01-23T06:33:59.486Z,978.84
2018-01-23T06:34:59.530Z,978.88
2018-01-23T06:35:59.589Z,978.90
2018-01-23T06:36:59.616Z,978.92
2018-01-23T06:37:59.666Z,978.98
2018-01-23T06:38:59.737Z,979.02
2018-01-23T06:39:59.746Z,979.05
2018-01-23T06:40:59.786Z,979.03
2018-01-23T06:41:59.835Z,979.09
2018-01-23T06:42:59.875Z,979.11
2018-01-23T06:43:59.938Z,979.14
2018-01-23T06:44:59.961Z,979.17
2018-01-23T06:46:00.005Z,979.17
2018-01-23T06:47:00.067Z,979.17
2018-01-23T06:48:00.089Z,979.17
2018-01-23T06:49:00.133Z,979.23
2018-01-23T06:50:00.174Z,979.25
2018-01-23T06:51:00.235Z,979.29
2018-01-23T06:52:00.264Z,979.26
2018-01-23T06:53:00.304Z,979.29
2018-01-23T06:54:00.347Z,979.28
2018-01-23T06:55:00.392Z,979.29
2018-01-23T06:56:00.449Z,979.32
2018-01-23T06:57:00.476Z,979.33
2018-01-23T06:58:00.521Z,979.29
2018-01-23T06:59:00.564Z,979.34
2018-01-23T07:00:00.604Z,979.32
2018-01-23T07:01:00.664Z,979.35
2018-01-23T07:02:00.691Z,979.35
2018-01-23T07:03:00.734Z,979.36
2018-01-23T07:04:00.795Z,979.38
2018-01-23T07:05:00.820Z,979.43
2018-01-23T07:06:00.879Z,979.40
2018-01-23T07:07:00.906Z,979.40
2018-01-23T07:08:00.948Z,979.42
2018-01-23T07:09:01.007Z,979.38
2018-01-23T07:10:01.035Z,979.40
2018-01-23T07:11:01.080Z,979.41
2018-01-23T07:12:01.122Z,979.42
2018-01-23T07:13:01.162Z,979.42
2018-01-23T07:14:01.222Z,979.42
2018-01-23T07:15:01.257Z,979.42
2018-01-23T07:16:01.292Z,979.41
2018-01-23T07:17:01.335Z,979.44
2018-01-23T07:18:01.382Z,979.47
2018-01-23T07:19:01.444Z,979.50
2018-01-23T07:20:01.470Z,979.53
2018-01-23T07:21:01.510Z,979.57
2018-01-23T07:22:01.549Z,979.58
2018-01-23T07:23:01.626Z,979.60
2018-01-23T07:24:01.638Z,979.65
2018-01-23T07:25:01.679Z,979.66
2018-01-23T07:26:01.722Z,979.67
2018-01-23T07:27:01.764Z,979.69
2018-01-23T07:28:01.824Z,979.69
2018-01-23T07:29:01.852Z,979.71
2018-01-23T07:30:01.893Z,979.71
2018-01-23T07:31:01.954Z,979.73
2018-01-23T07:32:01.978Z,979.75
2018-01-23T07:33:02.030Z,979.75
2018-01-23T07:34:02.067Z,979.75
2018-01-23T07:35:02.108Z,979.76
2018-01-23T07:36:02.169Z,979.80
2018-01-23T07:37:02.194Z,979.77
2018-01-23T07:38:02.242Z,979.76
2018-01-23T07:39:02.280Z,979.79
2018-01-23T07:40:02.325Z,979.77
2018-01-23T07:41:02.389Z,979.80
2018-01-23T07:42:02.408Z,979.79
2018-01-23T07:43:02.453Z,979.79
2018-01-23T07:44:02.497Z,979.82
2018-01-23T07:45:02.536Z,979.84
2018-01-23T07:46:02.598Z,979.86
2018-01-23T07:47:02.626Z,979.87
2018-01-23T07:48:02.668Z,979.85
2018-01-23T07:49:02.747Z,979.91
2018-01-23T07:50:02.752Z,979.94
2018-01-23T07:51:02.795Z,979.96
2018-01-23T07:52:02.842Z,979.99
2018-01-23T07:53:02.882Z,980.01
2018-01-23T07:54:02.956Z,980.05
2018-01-23T07:55:02.975Z,980.00
2018-01-23T07:56:03.011Z,979.99
2018-01-23T07:57:03.061Z,980.05
2018-01-23T07:58:03.099Z,980.06
2018-01-23T07:59:03.159Z,980.06
2018-01-23T08:00:03.186Z,980.03
2018-01-23T08:01:03.277Z,980.01
2018-01-23T08:02:03.285Z,980.00
2018-01-23T08:03:03.313Z,979.94
2018-01-23T08:04:03.358Z,979.94
2018-01-23T08:05:03.416Z,979.96
2018-01-23T08:06:03.442Z,979.93
2018-01-23T08:07:03.518Z,979.97
2018-01-23T08:08:03.532Z,979.96
2018-01-23T08:09:03.572Z,980.00
2018-01-23T08:10:03.616Z,979.99
2018-01-23T08:12:39.732Z,980.03
2018-01-23T08:13:39.763Z,980.02
2018-01-23T08:14:39.804Z,980.06
2018-01-23T08:15:39.847Z,980.07
2018-01-23T08:16:39.888Z,980.16
2018-01-23T08:17:39.953Z,980.11
2018-01-23T08:18:39.975Z,980.16
2018-01-23T08:19:40.019Z,980.14
2018-01-23T08:20:40.062Z,980.14
2018-01-23T08:21:40.108Z,980.17
2018-01-23T08:22:40.168Z,980.20
2018-01-23T08:23:40.193Z,980.20
2018-01-23T08:24:40.238Z,980.23
2018-01-23T08:25:40.279Z,980.18
2018-01-23T08:26:40.324Z,980.15
2018-01-23T08:27:40.384Z,980.21
2018-01-23T08:28:40.412Z,980.18
2018-01-23T08:29:40.457Z,980.23
2018-01-23T08:30:40.498Z,980.21
2018-01-23T08:31:40.546Z,980.19
2018-01-23T08:32:40.620Z,980.23
2018-01-23T08:33:40.631Z,980.21
2018-01-23T08:34:40.674Z,980.22
2018-01-23T08:35:40.717Z,980.22
2018-01-23T08:36:40.761Z,980.25
2018-01-23T08:37:40.820Z,980.29
2018-01-23T08:38:40.864Z,980.32
2018-01-23T08:39:40.892Z,980.34
2018-01-23T08:42:17.049Z,980.34
2018-01-23T08:43:17.120Z,980.33
2018-01-23T08:44:17.119Z,980.32
2018-01-23T08:45:17.162Z,980.36
2018-01-23T08:46:17.205Z,980.38
2018-01-23T08:47:17.250Z,980.38
2018-01-23T08:48:17.319Z,980.37
2018-01-23T08:49:17.338Z,980.39
2018-01-23T08:50:17.383Z,980.40
2018-01-23T08:51:17.427Z,980.43
2018-01-23T08:52:17.469Z,980.42
2018-01-23T08:53:17.557Z,980.45
2018-01-23T08:54:17.558Z,980.47
2018-01-23T08:55:17.599Z,980.45
2018-01-23T08:56:17.642Z,980.44
2018-01-23T08:57:17.688Z,980.43
2018-01-23T08:58:17.763Z,980.49
2018-01-23T08:59:17.776Z,980.51
2018-01-23T09:00:17.821Z,980.50
2018-01-23T09:01:17.863Z,980.52
2018-01-23T09:02:17.905Z,980.50
2018-01-23T09:03:17.971Z,980.58
2018-01-23T09:04:17.997Z,980.55
2018-01-23T09:05:18.054Z,980.56
2018-01-23T09:06:18.078Z,980.57
2018-01-23T09:07:18.125Z,980.56
2018-01-23T09:08:18.167Z,980.56
2018-01-23T09:09:18.212Z,980.62
2018-01-23T09:10:18.275Z,980.60
2018-01-23T09:11:18.302Z,980.68
2018-01-23T09:12:18.341Z,980.70
2018-01-23T09:13:18.387Z,980.70
2018-01-23T09:14:18.429Z,980.67
2018-01-23T09:15:18.487Z,980.70
2018-01-23T09:16:18.532Z,980.71
2018-01-23T09:17:18.562Z,980.74
2018-01-23T09:18:18.606Z,980.72
2018-01-23T09:19:18.645Z,980.73
2018-01-23T09:20:18.692Z,980.70
2018-01-23T09:21:18.755Z,980.74
2018-01-23T09:22:18.779Z,980.76
2018-01-23T09:23:18.822Z,980.80
2018-01-23T09:24:18.867Z,980.78
2018-01-23T09:25:18.910Z,980.84
2018-01-23T09:26:18.970Z,980.83
2018-01-23T09:27:18.996Z,980.79
2018-01-23T09:28:19.040Z,980.83
2018-01-23T09:29:19.086Z,980.85
2018-01-23T09:30:19.126Z,980.84
2018-01-23T09:31:19.190Z,980.86
2018-01-23T09:32:19.217Z,980.84
2018-01-23T09:33:19.258Z,980.84
2018-01-23T09:34:19.303Z,980.80
2018-01-23T09:35:19.349Z,980.82
2018-01-23T09:36:19.407Z,980.83
2018-01-23T09:37:19.436Z,980.85
2018-01-23T09:38:19.478Z,980.83
2018-01-23T09:39:19.521Z,980.88
2018-01-23T09:40:19.565Z,980.86
2018-01-23T09:41:19.625Z,980.94
2018-01-23T09:42:20.194Z,980.94
2018-01-23T09:43:19.703Z,980.92
2018-01-23T09:44:19.777Z,980.94
2018-01-23T09:45:19.791Z,980.94
2018-01-23T09:46:19.828Z,980.97
2018-01-23T09:47:19.873Z,980.99
2018-01-23T09:48:19.919Z,981.01
2018-01-23T09:49:19.995Z,981.01
2018-01-23T09:50:20.693Z,981.05
2018-01-23T09:51:20.047Z,981.05
2018-01-23T09:52:20.091Z,981.05
2018-01-23T09:53:20.135Z,981.04
2018-01-23T09:54:20.196Z,981.05
2018-01-23T09:55:20.222Z,981.04
2018-01-23T09:56:20.267Z,981.02
2018-01-23T09:57:20.313Z,981.06
2018-01-23T09:58:20.411Z,981.03
2018-01-23T09:59:20.436Z,981.06
2018-01-23T10:00:20.442Z,981.09
2018-01-23T10:01:20.491Z,981.06
2018-01-23T10:02:20.538Z,981.07
2018-01-23T10:03:20.576Z,981.06
2018-01-23T10:04:20.637Z,981.06
2018-01-23T10:05:20.666Z,981.07
2018-01-23T10:06:20.708Z,981.08
2018-01-23T10:07:20.750Z,981.06
2018-01-23T10:08:20.813Z,981.05
2018-01-23T10:09:20.839Z,981.01
2018-01-23T10:10:20.882Z,980.96
2018-01-23T10:11:20.929Z,980.96
2018-01-23T10:12:20.972Z,980.95
2018-01-23T10:13:21.039Z,980.93
2018-01-23T10:14:21.061Z,980.94
2018-01-23T10:15:21.891Z,980.94
2018-01-23T10:16:21.154Z,980.97
2018-01-23T10:17:21.192Z,981.00
2018-01-23T10:18:21.261Z,980.98
2018-01-23T10:19:21.284Z,980.98
2018-01-23T10:20:21.327Z,980.99
2018-01-23T10:21:21.370Z,981.02
2018-01-23T10:22:21.416Z,980.95
2018-01-23T10:23:21.480Z,980.93
2018-01-23T10:24:21.504Z,980.96
2018-01-23T10:25:21.548Z,980.94
2018-01-23T10:26:21.589Z,980.99
2018-01-23T10:27:21.636Z,980.98
2018-01-23T10:28:21.699Z,980.93
2018-01-23T10:29:21.724Z,980.94
2018-01-23T10:30:21.774Z,980.94
2018-01-23T10:31:21.817Z,980.99
2018-01-23T10:32:21.859Z,980.98
2018-01-23T10:33:21.919Z,980.98
2018-01-23T10:34:21.946Z,980.97
2018-01-23T10:35:22.028Z,980.94
2018-01-23T10:36:22.036Z,980.98
2018-01-23T10:37:22.080Z,981.03
2018-01-23T10:38:22.142Z,981.03
2018-01-23T10:39:22.172Z,981.04
2018-01-23T10:40:22.215Z,981.07
2018-01-23T10:41:22.263Z,981.05
2018-01-23T10:42:22.303Z,981.01
2018-01-23T10:43:22.363Z,980.96
2018-01-23T10:44:22.395Z,980.96
2018-01-23T10:45:22.438Z,980.97
2018-01-23T10:46:22.479Z,980.96
2018-01-23T10:47:22.524Z,980.97
2018-01-23T10:48:22.584Z,980.95
2018-01-23T10:49:22.620Z,980.97
2018-01-23T10:50:23.195Z,980.98
2018-01-23T10:51:22.709Z,981.02
2018-01-23T10:52:22.746Z,981.00
2018-01-23T10:53:22.808Z,980.98
2018-01-23T10:54:22.838Z,980.99
2018-01-23T10:55:22.878Z,980.97
2018-01-23T10:56:22.925Z,980.94
2018-01-23T10:57:23.004Z,980.99
2018-01-23T10:58:23.012Z,980.94
2018-01-23T10:59:23.058Z,980.96
2018-01-23T11:00:23.109Z,980.94
2018-01-23T11:01:23.154Z,980.94
2018-01-23T11:02:23.224Z,980.92
2018-01-23T11:03:23.237Z,980.91
2018-01-23T11:04:23.282Z,980.94
2018-01-23T11:05:23.322Z,980.96
2018-01-23T11:06:23.369Z,980.97
2018-01-23T11:07:23.444Z,980.93
2018-01-23T11:08:23.458Z,980.93
2018-01-23T11:09:23.500Z,980.97
2018-01-23T11:10:23.543Z,980.92
2018-01-23T11:11:23.590Z,980.94
2018-01-23T11:12:23.648Z,980.91
2018-01-23T11:13:23.676Z,980.92
2018-01-23T11:14:23.742Z,980.95
2018-01-23T11:15:23.765Z,980.92
2018-01-23T11:16:23.811Z,980.89
2018-01-23T11:17:23.863Z,980.85
2018-01-23T11:18:23.899Z,980.86
2018-01-23T11:19:23.962Z,980.85
2018-01-23T11:20:23.985Z,980.85
2018-01-23T11:21:24.030Z,980.85
2018-01-23T11:22:24.080Z,980.86
2018-01-23T11:23:24.118Z,980.82
2018-01-23T11:24:24.179Z,980.84
2018-01-23T11:25:24.231Z,980.87
2018-01-23T11:26:24.253Z,980.85
2018-01-23T11:27:24.296Z,980.85
2018-01-23T11:28:24.339Z,980.82
2018-01-23T11:29:24.381Z,980.82
2018-01-23T11:30:24.470Z,980.78
2018-01-23T11:31:24.473Z,980.84
2018-01-23T11:32:25.394Z,980.83
2018-01-23T11:33:24.566Z,980.78
2018-01-23T11:34:24.605Z,980.80
2018-01-23T11:35:24.689Z,980.79
2018-01-23T11:36:24.694Z,980.79
2018-01-23T11:37:24.746Z,980.77
2018-01-23T11:38:24.784Z,980.75
2018-01-23T11:39:24.834Z,980.79
2018-01-23T11:40:24.888Z,980.81
2018-01-23T11:41:24.921Z,980.78
2018-01-23T11:42:24.977Z,980.78
2018-01-23T11:43:25.006Z,980.83
2018-01-23T11:44:25.052Z,980.84
2018-01-23T11:45:25.092Z,980.85
2018-01-23T11:46:25.137Z,980.83
2018-01-23T11:47:25.196Z,980.85
2018-01-23T11:48:25.224Z,980.83
2018-01-23T11:49:25.269Z,980.77
2018-01-23T11:50:25.314Z,980.78
2018-01-23T11:51:25.361Z,980.81
2018-01-23T11:52:25.422Z,980.80
2018-01-23T11:53:25.451Z,980.78
2018-01-23T11:54:25.490Z,980.77
2018-01-23T11:55:25.538Z,980.76
2018-01-23T11:56:25.579Z,980.77
2018-01-23T11:57:25.643Z,980.73
2018-01-23T11:58:25.668Z,980.76
2018-01-23T11:59:25.713Z,980.75
2018-01-23T12:00:25.759Z,980.78
2018-01-23T12:01:25.804Z,980.77
2018-01-23T12:02:25.864Z,980.79
2018-01-23T12:03:25.891Z,980.77
2018-01-23T12:04:25.935Z,980.74
2018-01-23T12:05:25.982Z,980.76
2018-01-23T12:06:26.025Z,980.76
2018-01-23T12:07:26.139Z,980.74
2018-01-23T12:08:26.114Z,980.76
2018-01-23T12:09:26.161Z,980.74
2018-01-23T12:10:26.207Z,980.70
2018-01-23T12:11:26.251Z,980.69
2018-01-23T12:12:26.314Z,980.70
2018-01-23T12:13:26.340Z,980.73
2018-01-23T12:14:26.387Z,980.72
2018-01-23T12:15:26.431Z,980.73
2018-01-23T12:16:26.477Z,980.74
2018-01-23T12:17:26.538Z,980.75
2018-01-23T12:18:26.564Z,980.73
2018-01-23T12:19:26.609Z,980.77
2018-01-23T12:20:26.654Z,980.76
2018-01-23T12:21:26.698Z,980.71
2018-01-23T12:22:26.757Z,980.69
2018-01-23T12:23:26.787Z,980.70
2018-01-23T12:24:26.834Z,980.67
2018-01-23T12:25:27.395Z,980.65
2018-01-23T12:26:26.922Z,980.64
2018-01-23T12:27:26.990Z,980.64
2018-01-23T12:28:27.015Z,980.67
2018-01-23T12:29:27.110Z,980.61
2018-01-23T12:30:27.102Z,980.62
2018-01-23T12:31:27.148Z,980.61
2018-01-23T12:32:27.210Z,980.62